Time;durP1;ratioP1;P1;durP2;ratioP2;P2;SDS_P1;SDS_P2;PMS_P1;PMS_P2;Temp;Humidity;BMP_temperature;BMP_pressure;BME280_temperature;BME280_humidity;BME280_pressure;Samples;Min_cycle;Max_cycle;Signal;HPM_P1;HPM_P2
2022/12/31 00:00:37;;;;;;;0.97;0.97;;;;;;;11.45;100.00;99535.66;5012684;28;20762;-60
2022/12/31 00:03:03;;;;;;;1.30;0.80;;;;;;;11.50;100.00;99537.88;5058987;28;20291;-59
2022/12/31 00:05:34;;;;;;;1.00;0.90;;;;;;;11.55;100.00;99525.56;5070338;28;20177;-60
2022/12/31 00:08:01;;;;;;;1.47;0.90;;;;;;;11.60;100.00;99544.09;5067710;28;20205;-59
2022/12/31 00:10:28;;;;;;;1.10;1.00;;;;;;;11.59;100.00;99526.97;5061964;28;20231;-60
2022/12/31 00:12:53;;;;;;;1.03;0.83;;;;;;;11.57;100.00;99527.09;5064125;28;20211;-60
2022/12/31 00:15:18;;;;;;;0.67;0.67;;;;;;;11.64;100.00;99524.91;5062226;28;20169;-60
2022/12/31 00:17:44;;;;;;;1.20;1.10;;;;;;;11.69;100.00;99528.00;5062587;28;20780;-59
2022/12/31 00:20:10;;;;;;;1.00;0.90;;;;;;;11.81;100.00;99534.06;5060975;28;20562;-60
2022/12/31 00:22:35;;;;;;;1.17;0.90;;;;;;;11.73;100.00;99533.75;5061989;28;20214;-61
2022/12/31 00:25:00;;;;;;;0.77;0.77;;;;;;;11.80;100.00;99537.56;5071441;28;20249;-60
2022/12/31 00:27:29;;;;;;;0.70;0.70;;;;;;;11.88;100.00;99535.31;5070550;28;20180;-60
2022/12/31 00:29:54;;;;;;;1.10;1.00;;;;;;;11.84;100.00;99533.03;5069960;28;20181;-60
2022/12/31 00:32:19;;;;;;;0.70;0.70;;;;;;;11.78;100.00;99529.13;5057422;28;20247;-59
2022/12/31 00:34:45;;;;;;;0.90;0.87;;;;;;;11.82;100.00;99538.31;5051290;28;20181;-60
2022/12/31 00:37:10;;;;;;;0.63;0.63;;;;;;;11.76;100.00;99528.41;5054882;28;20530;-60
2022/12/31 00:39:35;;;;;;;1.07;1.00;;;;;;;11.76;100.00;99531.81;5051093;28;20182;-60
2022/12/31 00:42:01;;;;;;;0.80;0.80;;;;;;;11.93;100.00;99534.97;5056226;28;20220;-60
2022/12/31 00:44:26;;;;;;;1.23;0.80;;;;;;;11.94;100.00;99549.50;5050043;28;20188;-60
2022/12/31 00:46:51;;;;;;;0.60;0.60;;;;;;;12.05;100.00;99547.03;5050836;28;20647;-60
2022/12/31 00:49:17;;;;;;;1.23;0.60;;;;;;;12.08;100.00;99546.84;5048768;28;20272;-59
2022/12/31 00:51:42;;;;;;;1.97;0.90;;;;;;;12.05;100.00;99541.06;5040628;28;20664;-59
2022/12/31 00:54:11;;;;;;;1.03;0.70;;;;;;;12.07;100.00;99539.22;5053565;28;20263;-59
2022/12/31 00:56:36;;;;;;;0.47;0.47;;;;;;;12.08;100.00;99546.84;5050391;28;20187;-60
2022/12/31 00:59:01;;;;;;;1.57;0.50;;;;;;;12.08;100.00;99548.56;5051122;28;20169;-59
2022/12/31 01:01:33;;;;;;;1.23;0.90;;;;;;;12.10;100.00;99554.44;5051848;28;20236;-59
2022/12/31 01:04:02;;;;;;;0.60;0.60;;;;;;;12.11;100.00;99559.50;5049608;28;20174;-59
2022/12/31 01:06:28;;;;;;;0.67;0.67;;;;;;;12.18;100.00;99554.75;5049063;28;20181;-59
2022/12/31 01:08:54;;;;;;;2.13;0.90;;;;;;;12.14;100.00;99557.63;5050975;28;20174;-59
2022/12/31 01:11:27;;;;;;;2.20;0.60;;;;;;;12.16;100.00;99566.91;5042770;28;20261;-59
2022/12/31 01:14:02;;;;;;;0.67;0.60;;;;;;;12.14;100.00;99570.53;5055365;28;20220;-59
2022/12/31 01:16:31;;;;;;;0.90;0.60;;;;;;;12.10;100.00;99563.00;5049143;28;20176;-59
2022/12/31 01:18:59;;;;;;;0.67;0.67;;;;;;;12.17;100.00;99572.88;5046414;28;20174;-59
2022/12/31 01:21:26;;;;;;;1.60;0.70;;;;;;;12.16;100.00;99574.66;5042354;28;20308;-61
2022/12/31 01:23:51;;;;;;;0.97;0.70;;;;;;;12.20;100.00;99568.34;5049403;28;20177;-64
2022/12/31 01:26:18;;;;;;;0.70;0.70;;;;;;;12.26;100.00;99572.25;5050294;28;20193;-60
2022/12/31 01:28:43;;;;;;;2.37;1.10;;;;;;;12.17;100.00;99584.03;5049466;28;20216;-59
2022/12/31 01:31:11;;;;;;;0.80;0.80;;;;;;;12.32;100.00;99581.34;5049390;28;20248;-59
2022/12/31 01:33:38;;;;;;;0.70;0.70;;;;;;;12.35;100.00;99583.69;5057059;28;20248;-59
2022/12/31 01:36:10;;;;;;;0.80;0.80;;;;;;;12.32;100.00;99584.72;5050489;28;20637;-59
2022/12/31 01:38:35;;;;;;;0.90;0.90;;;;;;;12.37;100.00;99590.38;5050921;28;20181;-61
2022/12/31 01:41:01;;;;;;;0.80;0.80;;;;;;;12.43;100.00;99583.97;5051227;28;20216;-59
2022/12/31 01:43:44;;;;;;;1.87;1.07;;;;;;;12.46;100.00;99583.75;5053019;28;20188;-60
2022/12/31 01:46:13;;;;;;;0.70;0.70;;;;;;;12.41;100.00;99590.97;5042522;28;20636;-59
2022/12/31 01:48:39;;;;;;;0.70;0.70;;;;;;;12.51;100.00;99578.25;5052613;28;20173;-59
2022/12/31 01:51:08;;;;;;;1.07;0.90;;;;;;;12.40;100.00;99587.59;5052431;28;20228;-60
2022/12/31 01:53:34;;;;;;;1.00;1.00;;;;;;;12.41;100.00;99581.47;5060621;28;20275;-60
2022/12/31 01:56:01;;;;;;;1.10;1.10;;;;;;;12.40;100.00;99590.19;5053434;28;20181;-60
2022/12/31 01:58:40;;;;;;;1.20;0.80;;;;;;;12.36;100.00;99590.50;5052313;28;20238;-60
2022/12/31 02:01:08;;;;;;;2.53;1.13;;;;;;;12.35;100.00;99587.06;5051205;28;20236;-60
2022/12/31 02:03:35;;;;;;;2.43;1.20;;;;;;;12.26;100.00;99578.22;5052625;28;20208;-60
2022/12/31 02:06:09;;;;;;;1.80;1.00;;;;;;;12.35;100.00;99565.63;5051939;28;20181;-59
2022/12/31 02:08:35;;;;;;;0.60;0.60;;;;;;;12.46;100.00;99578.59;5053819;28;20287;-59
2022/12/31 02:11:56;;;;;;;1.23;1.10;;;;;;;12.36;100.00;99575.81;5045698;28;20285;-60
2022/12/31 02:14:25;;;;;;;1.93;1.10;;;;;;;12.36;100.00;99575.81;5051128;28;20629;-60
2022/12/31 02:17:00;;;;;;;1.27;0.67;;;;;;;12.27;100.00;99563.59;5053249;28;20193;-60
2022/12/31 02:20:03;;;;;;;3.73;1.20;;;;;;;12.24;100.00;99581.84;5050895;28;20181;-61
2022/12/31 02:23:02;;;;;;;1.47;0.90;;;;;;;12.22;100.00;99579.38;5022531;28;20226;-60
2022/12/31 02:25:49;;;;;;;1.43;1.00;;;;;;;12.35;100.00;99578.53;5045405;28;20417;-60
2022/12/31 02:28:33;;;;;;;1.27;1.17;;;;;;;12.37;100.00;99579.25;5052907;28;20223;-59
2022/12/31 02:31:12;;;;;;;5.07;1.20;;;;;;;12.38;100.00;99566.22;5044731;28;20244;-60
2022/12/31 02:33:53;;;;;;;2.60;0.83;;;;;;;12.37;100.00;99576.66;5051946;28;20225;-60
2022/12/31 02:36:27;;;;;;;0.93;0.90;;;;;;;12.45;100.00;99578.69;5061242;28;20599;-60
2022/12/31 02:38:54;;;;;;;1.30;1.20;;;;;;;12.45;100.00;99586.44;5047174;28;20181;-60
2022/12/31 02:44:19;;;;;;;1.30;0.90;;;;;;;12.46;100.00;99588.09;5055799;28;20231;-60
2022/12/31 02:46:55;;;;;;;1.77;1.30;;;;;;;12.47;100.00;99593.13;5052583;28;20671;-60
2022/12/31 02:49:40;;;;;;;2.73;1.03;;;;;;;12.51;100.00;99602.28;5039903;28;20219;-61
2022/12/31 02:52:12;;;;;;;1.73;1.00;;;;;;;12.52;100.00;99601.38;5043877;28;20266;-62
2022/12/31 02:54:55;;;;;;;4.27;1.00;;;;;;;12.43;100.00;99608.00;5052146;28;20177;-60
2022/12/31 02:57:35;;;;;;;1.63;1.37;;;;;;;12.49;100.00;99604.19;5051901;28;20185;-60
2022/12/31 03:03:01;;;;;;;1.30;1.20;;;;;;;12.51;100.00;99617.78;5008809;28;20267;-59
2022/12/31 03:05:31;;;;;;;1.87;1.30;;;;;;;12.56;100.00;99607.94;5071575;28;20188;-61
2022/12/31 03:07:56;;;;;;;2.57;1.50;;;;;;;12.58;100.00;99608.66;5070399;28;20596;-61
2022/12/31 03:10:22;;;;;;;2.30;1.20;;;;;;;12.58;100.00;99607.88;5062489;28;20392;-60
2022/12/31 03:12:48;;;;;;;3.23;1.57;;;;;;;12.61;100.00;99606.81;5040828;28;20197;-60
2022/12/31 03:15:22;;;;;;;3.50;1.37;;;;;;;12.62;100.00;99608.47;5052702;28;20177;-60
2022/12/31 03:17:50;;;;;;;2.23;1.40;;;;;;;12.56;100.00;99613.09;5050673;28;20173;-60
2022/12/31 03:23:03;;;;;;;3.33;1.50;;;;;;;12.65;100.00;99610.81;5063249;28;20662;-62
2022/12/31 03:25:34;;;;;;;3.70;1.40;;;;;;;12.61;100.00;99606.81;5047899;28;20256;-60
2022/12/31 03:28:09;;;;;;;2.53;1.57;;;;;;;12.49;100.00;99601.59;5050376;28;20182;-60
2022/12/31 03:30:37;;;;;;;1.93;1.40;;;;;;;12.47;100.00;99600.88;5043703;28;20219;-60
2022/12/31 03:33:04;;;;;;;1.47;1.13;;;;;;;12.49;100.00;99604.19;5050276;28;20226;-60
2022/12/31 03:35:32;;;;;;;2.53;1.20;;;;;;;12.59;100.00;99619.84;5054098;28;20204;-60
2022/12/31 03:37:58;;;;;;;3.87;1.20;;;;;;;12.54;100.00;99606.41;5046935;28;20327;-60
2022/12/31 03:40:26;;;;;;;2.77;1.50;;;;;;;12.64;100.00;99609.16;5035421;28;20320;-60
2022/12/31 03:42:51;;;;;;;1.40;1.30;;;;;;;12.63;100.00;99604.94;5037487;28;20628;-61
2022/12/31 03:45:17;;;;;;;3.00;1.07;;;;;;;12.71;100.00;99611.22;5051219;28;20211;-61
2022/12/31 03:47:43;;;;;;;2.70;1.50;;;;;;;12.67;100.00;99621.88;5051696;28;20242;-60
2022/12/31 03:50:10;;;;;;;3.53;1.20;;;;;;;12.52;100.00;99623.78;5040626;28;20617;-60
2022/12/31 03:52:35;;;;;;;2.07;1.30;;;;;;;12.58;100.00;99638.81;5066112;28;20287;-60
2022/12/31 03:55:01;;;;;;;2.73;1.60;;;;;;;12.58;100.00;99628.50;5051545;28;20632;-62
2022/12/31 03:57:27;;;;;;;3.70;1.50;;;;;;;12.57;100.00;99624.25;5046929;28;20177;-61
2022/12/31 03:59:53;;;;;;;1.40;1.30;;;;;;;12.58;100.00;99621.56;5045733;28;20208;-60
2022/12/31 04:02:21;;;;;;;4.83;1.50;;;;;;;12.55;100.00;99626.13;5065517;28;20656;-60
2022/12/31 04:04:46;;;;;;;1.97;1.20;;;;;;;12.59;100.00;99628.38;5071536;28;20634;-61
2022/12/31 04:07:11;;;;;;;1.27;1.10;;;;;;;12.55;100.00;99629.53;5070831;28;20199;-61
2022/12/31 04:09:37;;;;;;;2.97;1.30;;;;;;;12.63;100.00;99638.47;5071465;28;20180;-60
2022/12/31 04:12:02;;;;;;;2.93;1.30;;;;;;;12.77;100.00;99645.25;5058754;28;20698;-61
2022/12/31 04:14:31;;;;;;;2.90;1.30;;;;;;;12.74;100.00;99652.28;5051844;28;20680;-60
2022/12/31 04:16:56;;;;;;;1.53;1.43;;;;;;;12.84;100.00;99631.00;5053355;28;20235;-61
2022/12/31 04:19:21;;;;;;;3.83;1.40;;;;;;;12.84;100.00;99660.19;5050245;28;20692;-62
2022/12/31 04:21:47;;;;;;;2.50;1.60;;;;;;;12.93;100.00;99637.25;5053165;28;20235;-60
2022/12/31 04:24:12;;;;;;;2.77;1.30;;;;;;;12.93;100.00;99642.41;5053058;28;20181;-61
2022/12/31 04:26:38;;;;;;;1.57;1.27;;;;;;;12.87;100.00;99634.16;5050953;28;20482;-62
2022/12/31 04:29:06;;;;;;;1.83;1.47;;;;;;;12.92;100.00;99636.41;5051334;28;20173;-61
2022/12/31 04:31:35;;;;;;;1.80;1.60;;;;;;;12.94;100.00;99641.47;5041596;28;20769;-61
2022/12/31 04:34:00;;;;;;;3.90;2.03;;;;;;;12.84;100.00;99649.06;5047879;28;20371;-61
2022/12/31 04:36:26;;;;;;;1.37;1.27;;;;;;;12.79;100.00;99646.78;5052355;28;20275;-61
2022/12/31 04:38:51;;;;;;;2.80;1.37;;;;;;;12.87;100.00;99654.81;5051225;28;20209;-62
2022/12/31 04:41:16;;;;;;;2.73;1.40;;;;;;;12.95;100.00;99662.03;5051210;28;20228;-61
2022/12/31 04:43:46;;;;;;;3.43;2.13;;;;;;;13.07;100.00;99657.72;5057615;28;20181;-60
2022/12/31 04:46:13;;;;;;;2.63;1.13;;;;;;;13.07;100.00;99666.31;5049322;28;20181;-61
2022/12/31 04:48:38;;;;;;;1.30;1.20;;;;;;;13.07;100.00;99660.31;5049910;28;20182;-61
2022/12/31 04:51:03;;;;;;;2.13;1.43;;;;;;;13.08;100.00;99660.22;5049615;28;20599;-60
2022/12/31 04:53:29;;;;;;;3.80;1.40;;;;;;;13.11;100.00;99671.22;5059197;28;20201;-60
2022/12/31 04:55:54;;;;;;;3.47;1.10;;;;;;;13.15;100.00;99670.09;5050919;28;20615;-59
2022/12/31 04:58:20;;;;;;;1.40;1.07;;;;;;;13.27;100.00;99676.94;5050498;28;20181;-60
2022/12/31 05:00:50;;;;;;;1.40;1.30;;;;;;;13.36;100.00;99683.22;5047347;28;20308;-60
2022/12/31 05:03:21;;;;;;;2.63;1.57;;;;;;;13.47;100.00;99685.03;5049792;28;20197;-61
2022/12/31 05:05:46;;;;;;;2.97;1.33;;;;;;;13.54;100.00;99675.88;5050033;28;20189;-60
2022/12/31 05:08:13;;;;;;;1.67;1.30;;;;;;;13.58;100.00;99685.06;5051210;28;20182;-60
2022/12/31 05:10:43;;;;;;;2.47;0.93;;;;;;;13.62;100.00;99688.22;5042699;28;20282;-60
2022/12/31 05:13:09;;;;;;;1.97;1.00;;;;;;;13.76;100.00;99688.03;5049844;28;20220;-60
2022/12/31 05:15:34;;;;;;;1.97;1.00;;;;;;;13.78;100.00;99688.75;5053397;28;20191;-60
2022/12/31 05:17:59;;;;;;;1.10;0.97;;;;;;;13.84;100.00;99697.81;5054203;28;20228;-60
2022/12/31 05:20:25;;;;;;;1.97;1.23;;;;;;;13.87;100.00;99702.75;5047810;28;20295;-60
2022/12/31 05:22:50;;;;;;;3.80;1.13;;;;;;;13.83;100.00;99698.75;5066956;28;20189;-60
2022/12/31 05:25:16;;;;;;;2.70;1.23;;;;;;;13.87;100.00;99701.00;5054831;28;20185;-60
2022/12/31 05:27:41;;;;;;;1.53;1.00;;;;;;;13.86;100.00;99693.34;5054172;28;20219;-60
2022/12/31 05:30:07;;;;;;;2.50;1.17;;;;;;;13.93;100.00;99689.38;5045129;28;20208;-60
2022/12/31 05:32:33;;;;;;;1.73;1.20;;;;;;;13.81;100.00;99690.28;5052769;28;20282;-61
2022/12/31 05:34:59;;;;;;;2.53;1.07;;;;;;;13.80;100.00;99692.03;5054143;28;20628;-60
2022/12/31 05:37:26;;;;;;;1.40;1.30;;;;;;;13.90;100.00;99693.94;5054363;28;20177;-60
2022/12/31 05:39:52;;;;;;;2.03;1.17;;;;;;;13.84;100.00;99696.06;5049647;28;20245;-61
2022/12/31 05:42:17;;;;;;;1.10;1.00;;;;;;;13.77;100.00;99694.03;5058149;28;20231;-60
2022/12/31 05:44:42;;;;;;;1.80;0.90;;;;;;;13.86;100.00;99706.28;5054303;28;20214;-60
2022/12/31 05:47:07;;;;;;;1.70;1.10;;;;;;;13.81;100.00;99700.63;5053716;28;20192;-60
2022/12/31 05:49:33;;;;;;;1.40;0.97;;;;;;;13.64;100.00;99701.88;5053203;28;20272;-60
2022/12/31 05:51:58;;;;;;;1.20;1.10;;;;;;;13.59;100.00;99698.81;5058803;28;20225;-60
2022/12/31 05:54:23;;;;;;;1.33;1.10;;;;;;;13.59;100.00;99685.91;5054756;28;20184;-61
2022/12/31 05:56:49;;;;;;;1.43;1.00;;;;;;;13.61;100.00;99692.59;5053883;28;20621;-60
2022/12/31 05:59:14;;;;;;;1.83;1.30;;;;;;;13.44;100.00;99703.34;5054674;28;20629;-60
2022/12/31 06:01:40;;;;;;;2.27;1.20;;;;;;;13.49;100.00;99704.63;5056303;28;20532;-61
2022/12/31 06:04:05;;;;;;;2.50;1.30;;;;;;;13.48;100.00;99700.44;5056607;28;20181;-60
2022/12/31 06:06:30;;;;;;;1.23;1.10;;;;;;;13.59;100.00;99706.56;5053234;28;20185;-60
2022/12/31 06:08:55;;;;;;;2.53;1.13;;;;;;;13.60;100.00;99718.56;5053919;28;20187;-61
2022/12/31 06:11:21;;;;;;;1.93;1.30;;;;;;;13.68;100.00;99706.72;5053918;28;20224;-60
2022/12/31 06:13:46;;;;;;;0.90;0.90;;;;;;;13.66;100.00;99713.75;5059130;28;20280;-62
2022/12/31 06:16:11;;;;;;;1.93;1.13;;;;;;;13.76;100.00;99728.59;5052458;28;20181;-61
2022/12/31 06:18:37;;;;;;;1.73;1.10;;;;;;;13.71;100.00;99729.72;5053958;28;20177;-60
2022/12/31 06:21:02;;;;;;;2.23;1.20;;;;;;;13.73;100.00;99750.31;5034904;28;20225;-60
2022/12/31 06:23:28;;;;;;;2.60;1.20;;;;;;;13.75;100.00;99745.84;5041970;28;20606;-60
2022/12/31 06:25:54;;;;;;;1.17;1.07;;;;;;;13.79;100.00;99744.69;5052457;28;20188;-60
2022/12/31 06:28:19;;;;;;;0.87;0.73;;;;;;;13.85;100.00;99741.66;5053770;28;20557;-60
2022/12/31 06:30:44;;;;;;;1.30;1.17;;;;;;;13.88;100.00;99744.00;5048945;28;20212;-60
2022/12/31 06:33:10;;;;;;;2.27;0.97;;;;;;;13.82;100.00;99738.47;5063241;28;20225;-60
2022/12/31 06:35:35;;;;;;;1.40;0.93;;;;;;;13.94;100.00;99740.16;5053348;28;20182;-60
2022/12/31 06:38:00;;;;;;;1.53;0.70;;;;;;;14.03;100.00;99744.63;5032935;28;20185;-59
2022/12/31 06:40:26;;;;;;;2.93;1.20;;;;;;;14.07;100.00;99745.22;5041672;28;20229;-60
2022/12/31 06:42:52;;;;;;;1.13;0.90;;;;;;;13.96;100.00;99742.63;5048653;28;20182;-60
2022/12/31 06:45:18;;;;;;;4.00;1.10;;;;;;;13.92;100.00;99752.38;5049049;28;20181;-60
2022/12/31 06:47:43;;;;;;;1.43;1.00;;;;;;;14.04;100.00;99751.44;5051292;28;20585;-60
2022/12/31 06:50:09;;;;;;;3.23;1.10;;;;;;;14.08;100.00;99749.47;5043654;28;20247;-60
2022/12/31 06:52:34;;;;;;;2.00;0.80;;;;;;;13.98;100.00;99748.47;5063062;28;20221;-60
2022/12/31 06:54:59;;;;;;;1.83;1.03;;;;;;;13.96;100.00;99740.84;5047761;28;20628;-59
2022/12/31 06:57:25;;;;;;;1.93;1.10;;;;;;;13.98;100.00;99751.06;5052638;28;20193;-60
2022/12/31 06:59:51;;;;;;;5.87;1.30;;;;;;;13.97;100.00;99746.84;5052933;28;20620;-60
2022/12/31 07:02:50;;;;;;;2.70;1.13;;;;;;;14.00;100.00;99762.97;5058262;28;20311;-61
2022/12/31 07:05:39;;;;;;;5.37;1.20;;;;;;;13.95;100.00;99756.47;5052628;28;20172;-60
2022/12/31 07:08:29;;;;;;;2.33;1.00;;;;;;;13.91;100.00;99760.25;5052231;28;20185;-60
2022/12/31 07:11:02;;;;;;;1.20;0.90;;;;;;;13.86;100.00;99758.00;5041340;28;20223;-60
2022/12/31 07:13:46;;;;;;;1.83;1.20;;;;;;;13.84;100.00;99771.03;5051479;28;20213;-61
2022/12/31 07:16:18;;;;;;;3.70;1.13;;;;;;;13.90;100.00;99774.09;5050080;28;20617;-61
2022/12/31 07:19:11;;;;;;;1.07;1.07;;;;;;;13.92;100.00;99775.63;5051081;28;20786;-61
2022/12/31 07:21:38;;;;;;;1.13;1.03;;;;;;;13.98;100.00;99787.25;5031775;28;21028;-61
2022/12/31 07:24:09;;;;;;;2.83;0.90;;;;;;;13.90;100.00;99790.44;5051883;28;20178;-61
2022/12/31 07:26:55;;;;;;;3.83;1.30;;;;;;;13.87;100.00;99790.66;5050696;28;20640;-61
2022/12/31 07:29:49;;;;;;;2.40;1.33;;;;;;;13.86;100.00;99802.75;5061383;28;20205;-60
2022/12/31 07:32:32;;;;;;;1.83;1.27;;;;;;;13.84;100.00;99791.72;5039856;28;20235;-61
2022/12/31 07:35:16;;;;;;;3.10;1.17;;;;;;;13.73;100.00;99791.69;5050556;28;20201;-61
2022/12/31 07:37:50;;;;;;;1.93;1.17;;;;;;;13.66;100.00;99780.94;5049846;28;20182;-60
2022/12/31 07:40:46;;;;;;;1.53;1.20;;;;;;;13.67;100.00;99792.94;5044956;28;20644;-60
2022/12/31 07:43:26;;;;;;;3.20;1.20;;;;;;;13.69;100.00;99779.91;5034452;28;20194;-60
2022/12/31 07:46:02;;;;;;;2.57;1.20;;;;;;;13.58;100.00;99790.19;5051766;28;20185;-62
2022/12/31 07:48:28;;;;;;;0.90;0.90;;;;;;;13.60;100.00;99791.72;5050618;28;20177;-61
2022/12/31 07:50:55;;;;;;;1.77;1.30;;;;;;;13.57;100.00;99799.72;5048421;28;20310;-60
2022/12/31 07:53:22;;;;;;;1.40;1.30;;;;;;;13.51;100.00;99795.00;5049874;28;20208;-60
2022/12/31 07:55:53;;;;;;;3.40;1.87;;;;;;;13.48;100.00;99800.34;5050746;28;20193;-60
2022/12/31 07:58:34;;;;;;;1.60;1.50;;;;;;;13.52;100.00;99801.78;5050351;28;20185;-60
2022/12/31 08:01:00;;;;;;;3.13;1.40;;;;;;;13.49;100.00;99809.75;5028209;28;20310;-60
2022/12/31 08:03:51;;;;;;;3.13;1.40;;;;;;;13.54;100.00;99816.28;5049923;28;20215;-60
2022/12/31 08:06:37;;;;;;;1.40;1.30;;;;;;;13.56;100.00;99831.66;5050649;28;20189;-61
2022/12/31 08:09:23;;;;;;;3.07;1.50;;;;;;;13.51;100.00;99837.16;5047308;28;20643;-60
2022/12/31 08:11:55;;;;;;;2.93;1.33;;;;;;;13.52;100.00;99838.78;5039701;28;20225;-61
2022/12/31 08:14:21;;;;;;;1.40;1.17;;;;;;;13.67;100.00;99836.88;5046302;28;20261;-64
2022/12/31 08:16:47;;;;;;;2.60;1.80;;;;;;;13.76;100.00;99832.81;5048650;28;20315;-64
2022/12/31 08:19:24;;;;;;;6.87;1.80;;;;;;;13.71;100.00;99835.72;5048760;28;20181;-61
2022/12/31 08:22:05;;;;;;;2.17;1.40;;;;;;;13.82;100.00;99837.53;5030140;28;20307;-61
2022/12/31 08:24:54;;;;;;;3.57;1.47;;;;;;;13.71;100.00;99840.88;5059887;28;20188;-61
2022/12/31 08:27:34;;;;;;;3.97;1.80;;;;;;;13.81;100.00;99835.06;5046661;28;20663;-61
2022/12/31 08:30:12;;;;;;;2.53;1.53;;;;;;;13.69;100.00;99836.75;5050424;28;20180;-63
2022/12/31 08:32:49;;;;;;;2.27;1.40;;;;;;;13.76;100.00;99835.38;5038808;28;20558;-61
2022/12/31 08:35:18;;;;;;;3.47;1.47;;;;;;;13.86;100.00;99836.34;5070934;28;20267;-60
2022/12/31 08:38:05;;;;;;;2.93;1.30;;;;;;;13.86;100.00;99841.53;5070048;28;20652;-61
2022/12/31 08:40:48;;;;;;;3.00;1.77;;;;;;;13.87;100.00;99838.00;5056518;28;20285;-61
2022/12/31 08:43:19;;;;;;;2.37;1.50;;;;;;;13.98;100.00;99844.16;5049623;28;20230;-62
2022/12/31 08:45:50;;;;;;;2.10;1.70;;;;;;;13.93;100.00;99851.44;5050031;28;20185;-61
2022/12/31 08:48:39;;;;;;;3.37;1.70;;;;;;;13.89;100.00;99843.06;5042933;28;20322;-61
2022/12/31 08:51:05;;;;;;;2.97;1.50;;;;;;;14.08;100.00;99857.25;5044097;28;20432;-59
2022/12/31 08:53:30;;;;;;;2.37;2.17;;;;;;;14.20;100.00;99854.59;5058075;28;20217;-59
2022/12/31 08:56:06;;;;;;;2.17;1.40;;;;;;;14.21;100.00;99860.59;5054149;28;20220;-59
2022/12/31 08:59:04;;;;;;;2.87;1.73;;;;;;;14.25;100.00;99856.84;5053567;28;20238;-65
2022/12/31 09:01:41;;;;;;;5.17;1.77;;;;;;;14.37;100.00;99857.69;5043359;28;20226;-58
2022/12/31 09:04:28;;;;;;;2.27;1.40;;;;;;;14.42;100.00;99863.34;5051111;28;20280;-59
2022/12/31 09:06:58;;;;;;;3.70;1.97;;;;;;;14.56;100.00;99875.25;5065939;28;20182;-59
2022/12/31 09:09:37;;;;;;;2.63;1.63;;;;;;;14.41;100.00;99879.00;5049289;28;20203;-59
2022/12/31 09:12:27;;;;;;;3.57;1.67;;;;;;;14.33;100.00;99898.50;5043596;28;20258;-58
2022/12/31 09:15:12;;;;;;;3.60;1.70;;;;;;;14.28;100.00;99892.84;5054089;28;20188;-59
2022/12/31 09:17:48;;;;;;;2.67;1.60;;;;;;;14.33;100.00;99892.50;5054100;28;20181;-59
2022/12/31 09:20:29;;;;;;;2.23;1.47;;;;;;;14.44;100.00;99891.72;5045714;28;20205;-59
2022/12/31 09:22:56;;;;;;;2.57;1.43;;;;;;;14.44;100.00;99896.88;5048827;28;20182;-60
2022/12/31 09:25:23;;;;;;;2.07;1.47;;;;;;;14.52;100.00;99895.38;5052994;28;20662;-59
2022/12/31 09:28:34;;;;;;;2.63;1.70;;;;;;;14.58;100.00;99899.25;5052232;28;20177;-58
2022/12/31 09:31:04;;;;;;;3.80;1.83;;;;;;;14.53;100.00;99904.78;5064037;28;20298;-59
2022/12/31 09:34:01;;;;;;;3.10;1.70;;;;;;;14.52;100.00;99899.72;5054399;28;20717;-59
2022/12/31 09:36:45;;;;;;;2.10;1.57;;;;;;;14.78;100.00;99904.75;5074362;28;20184;-61
2022/12/31 09:39:39;;;;;;;3.73;1.90;;;;;;;14.98;100.00;99911.00;5054790;28;20257;-59
2022/12/31 09:42:45;;;;;;;2.70;2.03;;;;;;;15.19;100.00;99915.50;5044428;28;20224;-59
2022/12/31 09:45:49;;;;;;;1.80;1.70;;;;;;;15.16;100.00;99913.97;5054443;28;20287;-58
2022/12/31 09:48:40;;;;;;;3.23;1.70;;;;;;;15.87;100.00;99899.84;5054098;28;20197;-58
2022/12/31 09:51:31;;;;;;;2.93;1.60;;;;;;;16.00;100.00;99895.34;5039006;28;20285;-59
2022/12/31 09:54:23;;;;;;;3.23;1.87;;;;;;;15.72;100.00;99892.31;5054770;28;20196;-61
2022/12/31 09:57:13;;;;;;;4.03;1.60;;;;;;;15.80;100.00;99900.31;5070598;28;20204;-61
2022/12/31 10:00:00;;;;;;;2.73;1.77;;;;;;;16.07;100.00;99900.84;5071228;28;20187;-64
2022/12/31 10:02:38;;;;;;;5.30;1.90;;;;;;;16.25;100.00;99919.31;5031922;28;20363;-61
2022/12/31 10:05:24;;;;;;;2.57;1.70;;;;;;;16.36;100.00;99908.88;5053921;28;20173;-62
2022/12/31 10:08:11;;;;;;;1.97;1.50;;;;;;;16.38;100.00;99911.31;5053464;28;20184;-65
2022/12/31 10:10:49;;;;;;;3.33;1.57;;;;;;;16.39;100.00;99903.41;5044683;28;20321;-61
2022/12/31 10:13:33;;;;;;;4.13;1.60;;;;;;;15.90;100.00;99916.00;5045680;28;20296;-62
2022/12/31 10:16:16;;;;;;;3.67;1.40;;;;;;;15.77;100.00;99917.88;5044382;28;20280;-62
2022/12/31 10:19:20;;;;;;;2.90;1.73;;;;;;;15.85;100.00;99938.91;5052458;28;20173;-61
2022/12/31 10:22:23;;;;;;;3.50;1.80;;;;;;;15.49;100.00;99926.06;5033537;28;20308;-61
2022/12/31 10:25:04;;;;;;;2.50;1.80;;;;;;;15.38;100.00;99931.28;5051329;28;20189;-62
2022/12/31 10:27:50;;;;;;;4.07;1.83;;;;;;;15.51;100.00;99935.50;5034129;28;20193;-61
2022/12/31 10:30:21;;;;;;;3.63;1.70;;;;;;;15.28;100.00;99927.72;5022337;28;20189;-61
2022/12/31 10:33:17;;;;;;;1.50;1.40;;;;;;;15.20;100.00;99927.50;5008070;28;20258;-61
2022/12/31 10:36:04;;;;;;;2.53;1.70;;;;;;;15.38;100.00;99922.66;4997997;28;20265;-63
2022/12/31 10:38:37;;;;;;;2.43;2.00;;;;;;;15.58;100.00;99916.75;5008483;28;20179;-60
2022/12/31 10:41:17;;;;;;;2.57;1.40;;;;;;;15.81;100.00;99907.16;5001478;28;20268;-61
2022/12/31 10:44:16;;;;;;;8.77;1.60;;;;;;;15.61;100.00;99903.53;5027066;28;20194;-60
2022/12/31 10:47:04;;;;;;;7.13;2.13;;;;;;;15.65;100.00;99898.94;5017352;28;20286;-60
2022/12/31 10:49:50;;;;;;;4.37;2.20;;;;;;;15.72;100.00;99910.47;5027798;28;20186;-60
2022/12/31 10:52:49;;;;;;;2.27;1.70;;;;;;;15.82;100.00;99908.00;5016125;28;20212;-61
2022/12/31 10:55:53;;;;;;;6.10;1.80;;;;;;;15.73;100.00;99909.53;5053231;28;20545;-60
2022/12/31 10:58:56;;;;;;;3.07;1.87;;;;;;;15.71;100.00;99924.38;5043752;28;20207;-61
2022/12/31 11:01:47;;;;;;;2.90;1.40;;;;;;;16.00;100.00;99923.03;5053100;28;20709;-61
2022/12/31 11:04:43;;;;;;;2.63;1.80;;;;;;;16.11;100.00;99920.41;5054706;28;20188;-61
2022/12/31 11:07:11;;;;;;;2.47;2.00;;;;;;;16.06;100.00;99917.34;5040797;28;20169;-60
2022/12/31 11:09:55;;;;;;;2.50;1.73;;;;;;;16.07;100.00;99927.59;5052578;28;20185;-61
2022/12/31 11:12:48;;;;;;;4.27;1.73;;;;;;;15.94;100.00;99930.38;5057008;28;20224;-61
2022/12/31 11:15:29;;;;;;;4.30;1.77;;;;;;;15.82;100.00;99934.75;5040706;28;20648;-61
2022/12/31 11:18:06;;;;;;;5.53;1.80;;;;;;;15.95;100.00;99926.00;5051272;28;20218;-61
2022/12/31 11:20:59;;;;;;;4.00;1.73;;;;;;;15.92;100.00;99927.06;5046405;28;20232;-60
2022/12/31 11:23:55;;;;;;;1.73;1.60;;;;;;;16.01;100.00;99933.28;5060464;28;20240;-61
2022/12/31 11:26:43;;;;;;;2.47;1.60;;;;;;;16.15;100.00;99916.63;5052046;28;20178;-61
2022/12/31 11:29:50;;;;;;;4.03;1.70;;;;;;;16.12;100.00;99920.28;5052357;28;20216;-61
2022/12/31 11:32:37;;;;;;;2.50;1.50;;;;;;;16.15;100.00;99924.41;5039964;28;20611;-61
2022/12/31 11:35:12;;;;;;;4.03;2.07;;;;;;;16.21;100.00;99923.06;5054188;28;20184;-61
2022/12/31 11:37:47;;;;;;;3.10;1.40;;;;;;;16.18;100.00;99924.16;5037288;28;20667;-63
2022/12/31 11:40:25;;;;;;;3.23;1.80;;;;;;;16.20;100.00;99922.25;5041606;28;20285;-63
2022/12/31 11:42:55;;;;;;;3.00;1.53;;;;;;;16.32;100.00;99917.81;5050732;28;20193;-61
2022/12/31 11:45:58;;;;;;;2.97;1.70;;;;;;;16.38;100.00;99911.31;5052121;28;20219;-61
2022/12/31 11:48:44;;;;;;;3.40;1.50;;;;;;;16.32;100.00;99917.00;5051984;28;20234;-61
2022/12/31 11:51:15;;;;;;;3.27;1.50;;;;;;;16.48;100.00;99912.19;5040689;28;20263;-61
2022/12/31 11:54:02;;;;;;;4.37;2.00;;;;;;;16.51;100.00;99900.75;5043896;28;20557;-61
2022/12/31 11:56:36;;;;;;;5.33;1.50;;;;;;;16.39;100.00;99918.16;5050057;28;20279;-62
2022/12/31 11:59:08;;;;;;;3.20;1.80;;;;;;;16.54;100.00;99919.47;5050487;28;20189;-61
2022/12/31 12:01:58;;;;;;;3.23;1.80;;;;;;;16.51;100.00;99911.13;5033173;28;20220;-61
2022/12/31 12:04:23;;;;;;;3.07;1.87;;;;;;;16.32;100.00;99917.00;5071856;28;20184;-61